Time;durP1;ratioP1;P1;durP2;ratioP2;P2;SDS_P1;SDS_P2;PMS_P1;PMS_P2;Temp;Humidity;BMP_temperature;BMP_pressure;BME280_temperature;BME280_humidity;BME280_pressure;Samples;Min_cycle;Max_cycle;Signal;HPM_P1;HPM_P2
2021/06/26 00:00:36;;;;;;;1.80;1.70;;;17.90;80.20;;;20.82;67.39;101886.47;5008021;28;96763;-68
2021/06/26 00:03:06;;;;;;;4.30;1.48;;;17.80;80.20;;;20.81;67.95;101882.13;5002881;28;98048;-68
2021/06/26 00:05:35;;;;;;;1.65;1.15;;;17.80;80.20;;;20.80;67.49;101880.53;5003699;28;97673;-67
2021/06/26 00:08:06;;;;;;;3.08;2.05;;;17.80;80.20;;;20.75;67.53;101880.78;5010573;28;96952;-67
2021/06/26 00:10:35;;;;;;;1.75;1.65;;;17.80;80.20;;;20.78;67.67;101871.91;5023582;27;97279;-67
2021/06/26 00:13:05;;;;;;;1.73;1.63;;;17.80;80.30;;;20.74;66.71;101875.66;5025135;27;97873;-67
2021/06/26 00:15:34;;;;;;;2.05;1.27;;;17.80;80.20;;;20.71;68.16;101865.44;5008894;28;96804;-67
2021/06/26 00:18:07;;;;;;;8.80;2.67;;;17.80;80.20;;;20.72;66.93;101869.75;5009895;28;96808;-67
2021/06/26 00:20:36;;;;;;;1.48;1.38;;;17.70;80.20;;;20.70;67.18;101872.81;5008652;28;96741;-67
2021/06/26 00:23:08;;;;;;;7.10;2.75;;;17.70;80.20;;;20.71;66.42;101868.94;5007513;28;96935;-67
2021/06/26 00:25:37;;;;;;;2.40;1.77;;;17.70;80.30;;;20.71;66.79;101868.16;5007838;28;99262;-67
2021/06/26 00:28:06;;;;;;;2.15;1.92;;;17.70;80.30;;;20.72;66.95;101878.75;5009035;28;97127;-67
2021/06/26 00:30:35;;;;;;;3.08;2.65;;;17.70;80.30;;;20.72;67.49;101878.75;5008040;28;96978;-68
2021/06/26 00:33:06;;;;;;;3.00;2.72;;;17.70;80.40;;;20.67;67.37;101875.44;5003444;28;96891;-68
2021/06/26 00:35:35;;;;;;;2.65;1.77;;;17.70;80.40;;;20.65;66.47;101880.44;5008548;28;97717;-68
2021/06/26 00:38:12;;;;;;;3.70;2.38;;;17.60;80.30;;;20.62;66.77;101873.72;5007487;28;96749;-68
2021/06/26 00:40:41;;;;;;;8.85;3.10;;;17.60;80.30;;;20.60;67.23;101883.41;5005669;28;96942;-68
2021/06/26 00:43:09;;;;;;;2.53;2.33;;;17.60;80.30;;;20.57;67.63;101877.81;5018316;27;97977;-67
2021/06/26 00:45:39;;;;;;;6.43;1.92;;;17.60;80.30;;;20.53;66.97;101882.38;5010741;28;96671;-68
2021/06/26 00:48:09;;;;;;;3.63;2.83;;;17.50;80.30;;;20.48;67.03;101885.31;5003192;28;96811;-68
2021/06/26 00:50:38;;;;;;;3.75;2.00;;;17.50;80.30;;;20.43;67.92;101883.59;5008474;28;96769;-68
2021/06/26 00:53:07;;;;;;;2.80;2.20;;;17.50;80.40;;;20.32;67.42;101882.47;5005864;28;97877;-68
2021/06/26 00:55:37;;;;;;;2.90;2.53;;;17.40;80.40;;;20.31;67.67;101885.50;5004920;28;97228;-68
2021/06/26 00:58:07;;;;;;;8.18;2.92;;;17.40;80.50;;;20.29;68.10;101893.22;5007699;28;96890;-68
2021/06/26 01:00:36;;;;;;;4.85;3.25;;;17.30;80.50;;;20.22;67.70;101888.34;5005161;28;97359;-68
2021/06/26 01:03:07;;;;;;;9.77;2.35;;;17.30;80.60;;;20.20;67.67;101890.59;5008420;28;99054;-68
2021/06/26 01:05:36;;;;;;;4.22;2.63;;;17.30;80.60;;;20.17;67.09;101890.50;5005562;28;97153;-68
2021/06/26 01:08:09;;;;;;;2.95;1.05;;;17.20;80.60;;;20.17;68.06;101883.13;5007796;28;96912;-68
2021/06/26 01:10:38;;;;;;;7.03;3.80;;;17.20;80.70;;;20.16;68.12;101886.97;5005182;28;96976;-68
2021/06/26 01:13:08;;;;;;;1.73;1.63;;;17.20;80.70;;;20.11;67.14;101886.38;5007249;28;97866;-68
2021/06/26 01:15:37;;;;;;;6.03;2.97;;;17.10;80.70;;;20.00;67.91;101887.91;5008194;28;97024;-68
2021/06/26 01:18:08;;;;;;;5.90;2.80;;;17.00;80.80;;;19.92;68.24;101891.53;5008405;28;96871;-68
2021/06/26 01:20:37;;;;;;;3.45;2.00;;;17.00;80.80;;;19.89;68.55;101892.22;5007869;28;97081;-68
2021/06/26 01:23:07;;;;;;;4.32;1.95;;;17.00;80.90;;;19.90;68.32;101893.81;5022096;28;96722;-68
2021/06/26 01:25:35;;;;;;;13.35;2.20;;;17.00;80.90;;;19.85;67.80;101888.56;5009742;28;97650;-68
2021/06/26 01:28:05;;;;;;;5.10;2.55;;;17.00;80.90;;;19.82;68.04;101887.31;5008238;28;96723;-68
2021/06/26 01:30:37;;;;;;;1.40;1.25;;;17.00;80.90;;;19.79;68.33;101890.69;5005189;28;97240;-68
2021/06/26 01:33:07;;;;;;;0.90;0.90;;;16.90;80.90;;;19.77;67.90;101886.72;5023895;27;97931;-68
2021/06/26 01:35:36;;;;;;;1.88;1.65;;;16.90;80.90;;;19.75;68.37;101894.41;5011423;28;97635;-68
2021/06/26 01:38:06;;;;;;;5.97;3.38;;;16.90;80.90;;;19.73;68.01;101891.22;5006894;28;96626;-68
2021/06/26 01:40:36;;;;;;;3.85;2.15;;;16.90;80.90;;;19.71;68.20;101891.59;5007837;28;97315;-68
2021/06/26 01:43:04;;;;;;;1.83;1.48;;;16.80;80.90;;;19.65;68.26;101881.25;5007746;28;96800;-68
2021/06/26 01:45:33;;;;;;;2.42;2.28;;;16.80;80.90;;;19.60;67.72;101884.94;5006169;28;96933;-67
2021/06/26 01:48:05;;;;;;;8.30;2.58;;;16.70;80.90;;;19.64;68.58;101882.38;5003005;28;97324;-68
2021/06/26 01:50:33;;;;;;;15.18;3.05;;;16.70;80.90;;;19.57;67.98;101882.91;5007134;28;96970;-68
2021/06/26 01:53:06;;;;;;;1.42;1.33;;;16.70;81.00;;;19.56;67.98;101888.69;5022848;27;96714;-68
2021/06/26 01:55:35;;;;;;;5.68;1.83;;;16.70;81.00;;;19.52;68.30;101893.22;5023803;27;97719;-68
2021/06/26 01:58:04;;;;;;;4.38;2.38;;;16.60;81.00;;;19.50;67.82;101898.97;5005346;28;97405;-68
2021/06/26 02:00:33;;;;;;;2.35;1.77;;;16.60;81.00;;;19.47;68.13;101899.63;5006215;28;97543;-68
2021/06/26 02:03:05;;;;;;;4.97;2.40;;;16.60;81.00;;;19.47;68.02;101906.97;5008398;28;96701;-68
2021/06/26 02:05:34;;;;;;;13.98;3.97;;;16.60;81.00;;;19.49;67.55;101891.94;5008809;28;97638;-68
2021/06/26 02:08:06;;;;;;;2.55;2.22;;;16.60;81.10;;;19.45;67.83;101890.22;5008039;28;96975;-68
2021/06/26 02:10:36;;;;;;;3.45;2.63;;;16.60;81.00;;;19.43;67.57;101901.44;5006844;28;97160;-68
2021/06/26 02:13:05;;;;;;;2.95;1.58;;;16.50;81.00;;;19.40;67.58;101902.09;5008681;28;96863;-68
2021/06/26 02:15:33;;;;;;;2.78;2.28;;;16.50;81.00;;;19.33;68.28;101898.31;5004291;28;97752;-68
2021/06/26 02:18:04;;;;;;;7.20;3.72;;;16.50;81.00;;;19.30;68.23;101902.47;5002649;28;97618;-68
2021/06/26 02:20:32;;;;;;;11.45;2.72;;;16.40;80.90;;;19.28;68.49;101899.28;5008518;28;97678;-68
2021/06/26 02:23:04;;;;;;;3.83;2.67;;;16.40;81.00;;;19.26;68.53;101895.34;5008260;28;97062;-68
2021/06/26 02:25:38;;;;;;;11.65;1.92;;;16.40;81.00;;;19.18;68.56;101886.13;5008213;28;98082;-68
2021/06/26 02:28:06;;;;;;;5.43;3.28;;;16.40;81.00;;;19.17;68.46;101889.16;5005003;28;97115;-68
2021/06/26 02:30:40;;;;;;;5.45;4.30;;;16.40;81.00;;;19.16;68.42;101884.84;5005612;28;96757;-68
2021/06/26 02:33:10;;;;;;;1.65;1.50;;;16.30;81.00;;;19.15;68.21;101894.09;5005926;28;97704;-68
2021/06/26 02:35:38;;;;;;;4.30;3.97;;;16.30;81.00;;;19.07;68.07;101894.94;5007891;28;97956;-68
2021/06/26 02:38:07;;;;;;;1.70;1.45;;;16.30;81.00;;;19.04;68.59;101892.91;5007782;28;97255;-68
2021/06/26 02:40:37;;;;;;;10.10;3.45;;;16.30;81.00;;;19.05;68.02;101891.78;5005622;28;98207;-68
2021/06/26 02:43:05;;;;;;;6.72;3.40;;;16.20;81.00;;;19.03;68.59;101894.03;5004495;28;96916;-68
2021/06/26 02:45:34;;;;;;;3.83;1.23;;;16.20;81.00;;;18.95;68.19;101895.66;5007125;28;97676;-68
2021/06/26 02:48:06;;;;;;;4.97;3.50;;;16.20;81.00;;;18.91;68.79;101896.63;5006497;28;96784;-68
2021/06/26 02:50:35;;;;;;;3.10;2.17;;;16.20;81.00;;;18.91;68.89;101902.06;5021057;27;96921;-68
2021/06/26 02:53:05;;;;;;;4.05;3.15;;;16.20;81.00;;;18.97;68.13;101889.91;5001788;28;97979;-68
2021/06/26 02:55:34;;;;;;;6.65;3.15;;;16.20;81.00;;;18.94;68.57;101894.06;5007815;28;97595;-68
2021/06/26 02:58:04;;;;;;;4.00;1.88;;;16.10;81.00;;;18.92;68.24;101885.47;5006468;28;96752;-68
2021/06/26 03:00:33;;;;;;;6.07;1.75;;;16.10;81.00;;;18.90;68.63;101889.63;5006346;28;96853;-68
2021/06/26 03:03:05;;;;;;;5.80;3.55;;;16.10;81.10;;;18.90;68.16;101895.06;5004619;28;99679;-68
2021/06/26 03:05:34;;;;;;;3.17;1.92;;;16.10;81.00;;;18.92;68.05;101894.72;4997661;28;97645;-68
2021/06/26 03:08:06;;;;;;;5.53;2.00;;;16.10;81.00;;;18.96;68.22;101899.97;5005777;28;96658;-68
2021/06/26 03:10:36;;;;;;;;;;;16.10;81.00;;;18.92;68.12;101895.53;5009215;28;96773;-68
2021/06/26 03:13:06;;;;;;;1.55;1.27;;;16.10;81.00;;;18.95;68.08;101897.59;5007173;28;96937;-68
2021/06/26 03:15:35;;;;;;;5.00;2.35;;;16.20;81.00;;;18.97;67.85;101890.69;5012015;28;96951;-68
2021/06/26 03:18:06;;;;;;;7.60;3.22;;;16.10;80.90;;;19.04;67.98;101898.34;5007486;28;96812;-68
2021/06/26 03:20:35;;;;;;;5.07;2.60;;;16.10;80.80;;;19.06;67.96;101904.22;5012209;28;97854;-68
2021/06/26 03:23:06;;;;;;;3.10;2.85;;;16.20;80.90;;;19.12;67.83;101901.00;5004750;28;96873;-68
2021/06/26 03:25:35;;;;;;;2.28;1.63;;;16.20;80.90;;;19.13;67.41;101909.94;5009568;28;97983;-68
2021/06/26 03:28:06;;;;;;;5.20;2.85;;;16.20;80.80;;;19.16;68.41;101906.56;5011927;28;96810;-68
2021/06/26 03:30:36;;;;;;;2.13;1.83;;;16.20;80.80;;;19.19;67.54;101908.63;5008266;28;96913;-68
2021/06/26 03:33:05;;;;;;;3.67;2.83;;;16.20;81.30;;;19.22;67.23;101899.84;5003934;28;98105;-68
2021/06/26 03:35:34;;;;;;;4.28;2.47;;;16.30;80.70;;;19.21;67.81;101906.38;5011493;28;96825;-68
2021/06/26 03:38:05;;;;;;;4.80;2.30;;;16.30;80.60;;;19.26;66.95;101909.69;5006256;28;96851;-68
2021/06/26 03:40:34;;;;;;;1.35;1.25;;;16.30;80.60;;;19.28;67.09;101912.88;5008475;28;96815;-68
2021/06/26 03:43:06;;;;;;;2.63;1.73;;;16.30;80.50;;;19.35;67.61;101915.88;5021382;27;97865;-68
2021/06/26 03:45:35;;;;;;;3.72;2.45;;;16.40;80.50;;;19.41;67.40;101916.47;5006932;28;98820;-68
2021/06/26 03:48:05;;;;;;;7.32;2.50;;;16.40;80.40;;;19.44;66.86;101915.81;5021404;28;96851;-68
2021/06/26 03:50:36;;;;;;;1.65;1.55;;;16.40;80.40;;;19.48;67.12;101917.53;5008287;28;96815;-68
2021/06/26 03:53:05;;;;;;;2.30;1.77;;;16.40;80.30;;;19.57;66.19;101920.97;5007119;28;97854;-68
2021/06/26 03:55:34;;;;;;;4.68;3.15;;;16.50;80.30;;;19.63;66.82;101913.41;5011475;28;97574;-68
2021/06/26 03:58:07;;;;;;;1.38;1.25;;;16.50;80.90;;;19.71;66.20;101917.97;5007409;28;96671;-68
2021/06/26 04:00:36;;;;;;;4.25;1.90;;;16.60;80.20;;;19.85;66.58;101915.78;5009927;28;96960;-68
2021/06/26 04:03:05;;;;;;;3.35;2.40;;;16.70;80.10;;;20.00;65.05;101915.13;5024202;27;97357;-68
2021/06/26 04:05:34;;;;;;;3.92;2.35;;;16.70;79.90;;;20.08;65.08;101915.09;5009247;28;96969;-68
2021/06/26 04:08:07;;;;;;;1.48;1.38;;;16.80;79.80;;;20.20;65.40;101911.59;5007724;28;96902;-68
2021/06/26 04:10:35;;;;;;;1.77;1.37;;;16.90;79.60;;;20.34;65.26;101917.50;5005490;28;98857;-68
2021/06/26 04:13:06;;;;;;;5.50;3.28;;;17.00;79.50;;;20.49;64.92;101919.59;5032162;27;97047;-68
2021/06/26 04:15:36;;;;;;;4.65;2.70;;;17.10;79.30;;;20.60;64.59;101916.84;5007001;28;97775;-68
2021/06/26 04:18:06;;;;;;;5.13;2.92;;;17.20;79.10;;;20.76;64.40;101919.69;5005522;28;96927;-68
2021/06/26 04:20:35;;;;;;;3.28;2.97;;;17.30;79.00;;;20.95;63.42;101922.69;5006145;28;97159;-68
2021/06/26 04:23:04;;;;;;;12.25;5.07;;;17.50;78.80;;;21.10;63.10;101913.78;5024551;27;97934;-68
2021/06/26 04:25:34;;;;;;;6.32;2.88;;;17.60;78.60;;;21.20;64.20;101918.78;5008219;28;96817;-68
2021/06/26 04:28:08;;;;;;;8.27;3.65;;;17.80;78.30;;;21.33;64.09;101912.16;5025816;28;96998;-68
2021/06/26 04:30:41;;;;;;;3.25;2.30;;;17.90;78.10;;;21.48;63.37;101912.22;5008509;28;97004;-68
2021/06/26 04:33:10;;;;;;;3.97;2.42;;;18.10;78.00;;;21.55;63.13;101911.63;5004060;28;98062;-68
2021/06/26 04:35:39;;;;;;;2.38;1.73;;;18.20;77.80;;;21.60;63.64;101906.72;5006929;28;99628;-68
2021/06/26 04:38:09;;;;;;;4.57;4.13;;;18.30;77.80;;;21.62;63.08;101915.41;5021764;28;97885;-68
2021/06/26 04:40:37;;;;;;;7.43;4.03;;;18.40;77.70;;;21.77;63.38;101922.81;5003766;28;97162;-68
2021/06/26 04:43:07;;;;;;;4.38;3.05;;;18.50;77.60;;;21.87;63.14;101908.66;5006755;28;96924;-68
2021/06/26 04:45:36;;;;;;;5.68;3.10;;;18.60;77.50;;;21.98;63.45;101917.97;5006490;28;97555;-68
2021/06/26 04:48:08;;;;;;;6.88;3.25;;;18.60;77.40;;;22.13;62.71;101919.13;5008596;28;96812;-68
2021/06/26 04:50:37;;;;;;;4.55;2.88;;;18.70;77.30;;;22.26;62.79;101919.47;5006419;28;97058;-68
2021/06/26 04:53:06;;;;;;;12.50;4.13;;;18.80;77.20;;;22.38;62.56;101915.91;5010198;28;97900;-67
2021/06/26 04:55:35;;;;;;;5.63;3.67;;;19.00;77.10;;;22.46;62.66;101926.66;5009532;28;97592;-69
2021/06/26 04:58:07;;;;;;;13.02;3.97;;;19.00;77.00;;;22.59;62.46;101922.69;5007537;28;96624;-68
2021/06/26 05:00:35;;;;;;;6.45;2.63;;;19.20;77.00;;;22.73;62.23;101922.25;5008203;28;97363;-68
2021/06/26 05:03:06;;;;;;;4.63;3.63;;;19.30;76.80;;;22.87;62.16;101923.38;5005945;28;98316;-68
2021/06/26 05:05:35;;;;;;;2.88;1.92;;;19.40;76.70;;;23.00;61.96;101924.06;4990484;28;97853;-68
2021/06/26 05:08:06;;;;;;;5.40;2.63;;;19.50;76.50;;;23.09;61.95;101925.44;5022045;28;96781;-68
2021/06/26 05:10:35;;;;;;;3.42;2.13;;;19.60;76.40;;;23.20;61.84;101921.03;5026840;27;96922;-68
2021/06/26 05:13:05;;;;;;;5.45;3.30;;;19.80;76.30;;;23.19;61.94;101924.13;5008697;28;98016;-68
2021/06/26 05:15:35;;;;;;;10.63;4.15;;;19.90;76.20;;;23.20;62.46;101925.72;5007620;28;97644;-68
2021/06/26 05:18:06;;;;;;;5.05;3.13;;;19.90;76.20;;;23.23;62.36;101930.47;5005216;28;97072;-68
2021/06/26 05:20:35;;;;;;;9.93;5.28;;;20.00;76.10;;;23.25;62.45;101931.69;5006324;28;96983;-68
2021/06/26 05:23:15;;;;;;;5.65;4.07;;;20.10;76.10;;;23.32;62.57;101933.78;5023539;27;97921;-68
2021/06/26 05:25:45;;;;;;;8.55;4.25;;;20.10;76.00;;;23.35;62.55;101933.06;5006879;28;96726;-68
2021/06/26 05:28:15;;;;;;;5.72;4.05;;;20.20;76.00;;;23.45;62.53;101924.31;5007415;28;96742;-68
2021/06/26 05:30:46;;;;;;;5.65;3.00;;;20.20;75.90;;;23.73;61.89;101928.41;5006343;28;96710;-68
2021/06/26 05:33:15;;;;;;;2.47;2.17;;;20.50;75.90;;;24.21;61.19;101928.56;5006777;28;96906;-69
2021/06/26 05:35:46;;;;;;;4.97;2.53;;;21.20;74.60;;;24.50;60.94;101933.44;5010244;28;96828;-69
2021/06/26 05:38:14;;;;;;;13.23;4.43;;;21.40;74.10;;;24.99;60.06;101941.63;5024922;27;96836;-69
2021/06/26 05:40:43;;;;;;;6.18;3.25;;;21.60;74.00;;;25.32;59.63;101937.06;5005814;28;97006;-69
2021/06/26 05:43:12;;;;;;;3.80;3.28;;;22.10;73.80;;;26.05;58.93;101934.44;5009833;28;97022;-69
2021/06/26 05:45:41;;;;;;;4.55;2.97;;;22.50;73.30;;;26.73;57.74;101931.97;5009621;28;99730;-66
2021/06/26 05:48:11;;;;;;;5.88;3.58;;;22.80;73.20;;;27.27;56.96;101922.50;5008342;28;96786;-66
2021/06/26 05:50:40;;;;;;;12.13;4.25;;;23.40;72.90;;;28.82;53.99;101920.88;5008468;28;97324;-66
2021/06/26 05:53:08;;;;;;;3.70;2.13;;;24.60;71.40;;;30.14;51.48;101914.88;5026196;27;97070;-66
2021/06/26 05:55:37;;;;;;;7.95;4.55;;;25.80;69.40;;;30.45;51.66;101919.38;5009332;28;96801;-66
2021/06/26 05:58:07;;;;;;;10.77;4.47;;;26.20;68.60;;;30.57;52.72;101924.47;5009085;28;96811;-66
2021/06/26 06:00:37;;;;;;;6.47;3.45;;;27.10;68.30;;;31.16;52.82;101912.03;5005004;28;97144;-66
2021/06/26 06:03:06;;;;;;;4.40;2.53;;;28.20;67.20;;;31.38;53.74;101916.91;5002643;28;98516;-67
2021/06/26 06:05:36;;;;;;;7.90;3.60;;;29.00;66.10;;;32.12;53.26;101910.34;5003333;28;96816;-67
2021/06/26 06:08:05;;;;;;;5.90;3.47;;;30.00;65.20;;;34.19;49.36;101917.06;5008736;28;97900;-67
2021/06/26 06:10:34;;;;;;;5.03;3.28;;;31.00;64.10;;;35.78;47.23;101903.94;5007165;28;96999;-67
2021/06/26 06:13:05;;;;;;;5.18;2.70;;;31.90;63.50;;;37.37;45.21;101907.25;5002373;28;97086;-67
2021/06/26 06:15:34;;;;;;;4.38;2.72;;;32.90;63.60;;;38.27;44.86;101902.88;5005232;28;97558;-67
2021/06/26 06:18:07;;;;;;;5.43;3.38;;;33.80;62.40;;;39.28;43.47;101895.63;5006219;28;96760;-67
2021/06/26 06:20:37;;;;;;;;;;;34.60;61.70;;;40.05;43.18;101903.97;5011000;28;96779;-68
2021/06/26 06:23:06;;;;;;;7.72;3.75;;;35.30;61.30;;;40.32;43.88;101897.41;5002575;28;96823;-68
2021/06/26 06:25:35;;;;;;;7.82;4.10;;;35.80;61.50;;;39.85;45.32;101900.13;5005425;28;97635;-68
2021/06/26 06:28:07;;;;;;;15.45;6.53;;;35.80;61.90;;;39.47;46.40;101905.56;5011032;28;97377;-68
2021/06/26 06:30:36;;;;;;;8.27;3.20;;;35.60;62.20;;;39.03;47.85;101909.22;5027147;27;97229;-68
2021/06/26 06:33:08;;;;;;;9.38;3.80;;;35.40;62.80;;;38.67;48.46;101909.97;5004088;28;97057;-68
2021/06/26 06:35:38;;;;;;;8.50;3.80;;;35.10;63.20;;;39.18;47.85;101905.31;5005949;28;97462;-68
2021/06/26 06:38:07;;;;;;;3.85;2.50;;;35.20;63.90;;;40.48;45.42;101880.16;5004040;28;97377;-68
2021/06/26 06:40:35;;;;;;;7.25;2.83;;;35.70;63.60;;;41.84;43.43;101852.97;5036420;27;96957;-68
2021/06/26 06:43:05;;;;;;;6.55;4.32;;;36.40;62.70;;;41.60;44.05;101843.88;5020105;28;97020;-68
2021/06/26 06:45:34;;;;;;;5.28;3.92;;;36.70;62.20;;;41.50;44.54;101850.88;4999992;28;97665;-68
2021/06/26 06:48:07;;;;;;;6.85;4.38;;;36.80;62.10;;;41.26;44.92;101855.09;5003815;28;96763;-68
2021/06/26 06:50:36;;;;;;;31.47;5.43;;;36.70;62.30;;;40.96;45.62;101861.94;5006028;28;96940;-68
2021/06/26 06:53:08;;;;;;;8.55;3.05;;;36.60;62.70;;;41.28;45.24;101848.50;5003245;28;97585;-68
2021/06/26 06:55:36;;;;;;;8.45;3.72;;;36.60;62.80;;;42.38;43.03;101895.25;5005515;28;100119;-68
2021/06/26 06:58:05;;;;;;;7.43;3.42;;;37.00;62.70;;;44.00;40.49;101897.91;5006369;28;97174;-68
2021/06/26 07:00:34;;;;;;;5.00;2.88;;;37.90;61.80;;;43.49;42.34;101901.63;5005415;28;97080;-68
2021/06/26 07:03:05;;;;;;;7.90;3.88;;;38.10;61.50;;;42.95;43.28;101876.47;5022397;27;97018;-68
2021/06/26 07:05:34;;;;;;;9.80;4.25;;;37.90;61.80;;;43.39;42.47;101854.28;5007681;28;97645;-68
2021/06/26 07:08:07;;;;;;;4.78;2.55;;;38.10;61.90;;;44.43;40.86;101846.47;5005069;28;96850;-68
2021/06/26 07:10:36;;;;;;;9.00;2.85;;;38.40;61.50;;;45.28;39.29;101822.19;5002576;28;96605;-68
2021/06/26 07:13:09;;;;;;;5.75;2.40;;;38.90;61.20;;;46.66;37.27;101814.03;5005825;28;96920;-68
2021/06/26 07:15:39;;;;;;;5.50;2.67;;;39.70;60.10;;;47.77;35.30;101819.00;5005610;28;96780;-68
2021/06/26 07:18:08;;;;;;;7.93;3.20;;;40.50;59.30;;;48.00;35.78;101842.28;5004583;28;96900;-68
2021/06/26 07:20:36;;;;;;;6.43;2.85;;;41.00;58.70;;;48.25;35.87;101838.84;5006484;28;97026;-68
2021/06/26 07:23:07;;;;;;;3.58;1.92;;;41.30;58.80;;;49.46;34.27;101837.00;5002221;28;97140;-68
2021/06/26 07:25:36;;;;;;;5.40;2.90;;;42.00;58.40;;;50.44;32.78;101834.22;5004179;28;96861;-69
2021/06/26 07:28:05;;;;;;;5.90;3.03;;;42.50;57.90;;;49.12;35.76;101885.22;5002318;28;96793;-68
2021/06/26 07:30:34;;;;;;;6.65;2.78;;;42.50;57.70;;;48.88;36.50;101861.78;5003884;28;96891;-68
2021/06/26 07:33:07;;;;;;;4.22;2.50;;;42.20;58.70;;;49.49;35.52;101853.75;5000452;28;97779;-69
2021/06/26 07:35:35;;;;;;;4.68;2.47;;;42.30;58.50;;;49.47;35.01;101873.50;4999889;28;97563;-69
2021/06/26 07:38:07;;;;;;;5.47;3.00;;;42.20;58.60;;;48.35;37.69;101877.00;5004287;28;96856;-69
2021/06/26 07:40:35;;;;;;;7.47;3.15;;;41.90;59.00;;;47.61;38.11;101876.00;5003660;28;97136;-69
2021/06/26 07:43:07;;;;;;;7.43;2.38;;;41.30;59.90;;;47.01;39.48;101871.59;5002143;28;97883;-68
2021/06/26 07:45:36;;;;;;;4.05;2.40;;;40.70;60.40;;;48.64;36.34;101881.78;5002876;28;96889;-68
2021/06/26 07:48:07;;;;;;;6.57;2.30;;;40.80;60.80;;;47.67;37.75;101886.03;5005514;28;96726;-68
2021/06/26 07:50:36;;;;;;;5.25;2.80;;;40.80;60.60;;;49.13;34.90;101869.66;5024412;27;97194;-69
2021/06/26 07:53:07;;;;;;;3.90;2.35;;;40.80;60.70;;;51.09;31.48;101862.56;5003242;28;99133;-68
2021/06/26 07:55:36;;;;;;;1.52;0.77;;;41.40;60.00;;;51.88;31.24;101872.91;5011063;28;98777;-68
2021/06/26 07:58:05;;;;;;;2.95;2.30;;;42.00;59.60;;;51.61;32.13;101873.63;5010366;28;96781;-69
2021/06/26 08:00:33;;;;;;;4.38;2.72;;;42.40;59.40;;;50.88;33.02;101870.31;5008345;28;97047;-70
2021/06/26 08:03:05;;;;;;;7.03;1.33;;;42.40;59.70;;;50.42;33.94;101865.41;5004574;28;96797;-70
2021/06/26 08:05:34;;;;;;;6.07;2.13;;;42.20;59.70;;;48.05;38.68;101878.44;5007853;28;96887;-70
2021/06/26 08:08:06;;;;;;;4.53;1.85;;;41.60;60.40;;;47.97;37.95;101868.91;5005906;28;96848;-70
2021/06/26 08:10:35;;;;;;;2.35;1.73;;;41.10;61.00;;;48.69;36.08;101872.41;5025441;27;98211;-70
2021/06/26 08:13:05;;;;;;;2.60;1.83;;;40.80;61.40;;;48.52;36.45;101876.78;5008144;28;99249;-70
2021/06/26 08:15:36;;;;;;;4.95;2.15;;;40.60;61.40;;;48.41;35.83;101866.31;5009056;28;97637;-70
2021/06/26 08:18:09;;;;;;;3.13;1.42;;;40.40;61.60;;;47.69;36.88;101874.13;5005819;28;96907;-70
2021/06/26 08:20:39;;;;;;;6.55;1.75;;;40.10;61.70;;;46.90;38.95;101874.50;5007509;28;97004;-70
2021/06/26 08:23:11;;;;;;;3.28;1.05;;;39.80;62.40;;;46.93;38.03;101870.63;5007070;28;98184;-70
2021/06/26 08:25:40;;;;;;;17.42;2.08;;;39.50;62.70;;;46.76;37.89;101872.78;5005311;28;96821;-69
2021/06/26 08:28:09;;;;;;;7.43;2.10;;;39.30;62.90;;;47.37;36.75;101865.38;5004987;28;96766;-70
2021/06/26 08:30:38;;;;;;;4.00;1.83;;;39.10;62.70;;;47.53;35.93;101863.69;5009001;28;97107;-69
2021/06/26 08:33:07;;;;;;;2.22;1.23;;;39.10;62.80;;;47.40;36.06;101863.53;5006274;28;98646;-70
2021/06/26 08:35:36;;;;;;;3.58;1.92;;;39.00;62.70;;;47.84;35.44;101868.81;5012385;28;97015;-70
2021/06/26 08:38:06;;;;;;;1.25;1.08;;;38.90;62.90;;;48.52;34.22;101866.19;5008840;28;96848;-69
2021/06/26 08:40:36;;;;;;;1.45;0.93;;;38.90;62.90;;;48.68;34.43;101862.34;5009147;28;97829;-70
2021/06/26 08:43:05;;;;;;;6.07;1.88;;;39.00;62.80;;;49.19;33.96;101861.03;5008290;28;98121;-70
2021/06/26 08:45:37;;;;;;;2.63;1.55;;;39.20;63.00;;;49.52;33.46;101860.47;5005299;28;96987;-70
2021/06/26 08:48:06;;;;;;;;;;;39.40;63.10;;;49.79;33.72;101865.66;5008497;28;96853;-69
2021/06/26 08:50:35;;;;;;;2.78;1.73;;;39.60;62.40;;;49.85;33.90;101859.84;5022720;28;96805;-70
2021/06/26 08:53:04;;;;;;;1.95;1.58;;;39.90;62.90;;;49.48;34.72;101854.31;5004879;28;96918;-70
2021/06/26 08:55:34;;;;;;;6.03;3.40;;;39.90;63.00;;;49.01;35.90;101856.94;5007962;28;97604;-70
2021/06/26 08:58:05;;;;;;;4.37;2.27;;;39.90;63.10;;;48.33;36.68;101859.72;5005944;28;96825;-70
2021/06/26 09:00:36;;;;;;;;;;;39.70;63.30;;;48.16;37.19;101850.59;5008192;28;96667;-70
2021/06/26 09:03:09;;;;;;;6.53;3.00;;;39.60;63.10;;;47.72;38.47;101853.94;5007168;28;97963;-70
2021/06/26 09:05:40;;;;;;;3.47;2.10;;;39.40;63.70;;;47.92;37.58;101859.16;5006507;28;99105;-70
2021/06/26 09:08:12;;;;;;;2.55;2.03;;;39.30;64.10;;;46.92;39.79;101852.06;5011125;28;96909;-70
2021/06/26 09:10:46;;;;;;;1.83;1.58;;;39.10;64.30;;;46.45;40.51;101852.56;5007409;28;97440;-70
2021/06/26 09:13:22;;;;;;;4.60;1.55;;;38.80;64.70;;;46.48;40.10;101854.38;5009032;28;97850;-71
2021/06/26 09:16:05;;;;;;;4.75;2.42;;;38.60;64.80;;;46.30;40.52;101852.91;5005875;28;98555;-71
2021/06/26 09:18:42;;;;;;;2.05;1.52;;;38.50;65.30;;;46.08;41.07;101857.84;5041833;27;96762;-71
2021/06/26 09:21:26;;;;;;;5.28;2.63;;;38.40;65.20;;;45.78;41.48;101856.88;5005974;28;96749;-69
2021/06/26 09:24:05;;;;;;;7.72;3.03;;;38.30;65.40;;;45.63;41.63;101859.25;5038516;27;99184;-69
2021/06/26 09:26:41;;;;;;;8.25;2.90;;;38.10;65.60;;;45.69;41.59;101860.78;5007429;28;97139;-70
2021/06/26 09:29:13;;;;;;;5.78;2.55;;;38.00;66.50;;;45.61;41.79;101861.84;5007094;28;97322;-69
2021/06/26 09:31:54;;;;;;;4.57;2.35;;;37.90;66.00;;;45.44;41.96;101864.66;5006032;28;98092;-70
2021/06/26 09:34:38;;;;;;;6.70;3.70;;;37.90;65.80;;;44.83;42.84;101859.47;5006243;28;96862;-70
2021/06/26 09:37:10;;;;;;;3.80;2.80;;;37.70;66.20;;;44.05;44.03;101866.88;5009283;28;96788;-70
2021/06/26 09:39:42;;;;;;;7.30;3.45;;;37.50;66.50;;;43.37;45.76;101865.31;5006182;28;96675;-69
2021/06/26 09:42:22;;;;;;;11.15;3.28;;;37.20;66.70;;;42.88;46.44;101865.59;5005921;28;96947;-69
2021/06/26 09:44:56;;;;;;;9.00;2.83;;;36.90;66.70;;;42.22;47.49;101864.78;5006885;28;97616;-69
2021/06/26 09:47:31;;;;;;;6.30;3.33;;;36.60;67.50;;;41.62;47.95;101866.69;5007650;28;98267;-70
2021/06/26 09:50:14;;;;;;;6.38;2.17;;;36.20;67.40;;;41.02;49.08;101871.25;5003194;28;97362;-70
2021/06/26 09:52:49;;;;;;;8.80;2.92;;;35.80;67.40;;;40.32;50.11;101858.09;5002707;28;96733;-70
2021/06/26 09:55:25;;;;;;;7.25;2.97;;;35.40;68.00;;;40.12;50.18;101858.69;5002863;28;96973;-70
2021/06/26 09:57:59;;;;;;;8.55;4.05;;;35.10;68.40;;;40.03;50.31;101866.38;5004608;28;96885;-70
2021/06/26 10:00:32;;;;;;;3.85;2.97;;;34.90;68.50;;;39.87;50.32;101864.72;5007866;28;96878;-70
2021/06/26 10:03:04;;;;;;;4.88;2.80;;;34.80;68.80;;;40.13;49.50;101871.47;5023883;28;98018;-71
2021/06/26 10:05:33;;;;;;;5.53;3.97;;;34.70;68.90;;;40.29;49.37;101861.84;5003438;28;97806;-71
2021/06/26 10:08:07;;;;;;;5.75;3.08;;;34.70;69.00;;;40.76;48.38;101867.41;5004158;28;97032;-71
2021/06/26 10:10:36;;;;;;;2.63;1.95;;;34.90;68.90;;;41.00;48.17;101860.50;5007236;28;96875;-70
2021/06/26 10:13:11;;;;;;;7.18;2.72;;;35.10;68.60;;;41.06;47.99;101858.56;5005353;28;96921;-71
2021/06/26 10:15:41;;;;;;;14.30;5.38;;;35.30;67.90;;;40.89;48.40;101860.28;5003293;28;99149;-71
2021/06/26 10:18:12;;;;;;;5.47;3.08;;;35.50;67.80;;;40.78;48.81;101854.44;5018099;27;97272;-71
2021/06/26 10:20:41;;;;;;;4.93;2.42;;;35.60;67.60;;;40.57;49.26;101860.41;5008468;28;96860;-71
2021/06/26 10:23:11;;;;;;;4.43;2.85;;;35.60;67.30;;;40.27;49.95;101851.06;5003767;28;97346;-70
2021/06/26 10:25:41;;;;;;;3.40;2.30;;;35.60;67.60;;;40.16;50.31;101858.50;5005113;28;97959;-71